sensor_id;sensor_type;location;lat;lon;timestamp;temperature;humidity
67093;SHT31;54011;50.772;7.730;2023-08-24T00:01:41;21.69;71.24
67093;SHT31;54011;50.772;7.730;2023-08-24T00:04:06;21.77;71.29
67093;SHT31;54011;50.772;7.730;2023-08-24T00:06:33;22.04;70.53
67093;SHT31;54011;50.772;7.730;2023-08-24T00:08:58;22.03;70.29
67093;SHT31;54011;50.772;7.730;2023-08-24T00:11:24;21.64;71.23
67093;SHT31;54011;50.772;7.730;2023-08-24T00:13:50;21.96;70.61
67093;SHT31;54011;50.772;7.730;2023-08-24T00:16:17;21.96;70.66
67093;SHT31;54011;50.772;7.730;2023-08-24T00:18:42;21.73;71.34
67093;SHT31;54011;50.772;7.730;2023-08-24T00:21:08;21.56;71.55
67093;SHT31;54011;50.772;7.730;2023-08-24T00:23:33;21.41;72.17
67093;SHT31;54011;50.772;7.730;2023-08-24T00:25:59;21.46;72.06
67093;SHT31;54011;50.772;7.730;2023-08-24T00:28:25;21.83;70.84
67093;SHT31;54011;50.772;7.730;2023-08-24T00:30:54;21.66;71.32
67093;SHT31;54011;50.772;7.730;2023-08-24T00:33:20;21.70;71.00
67093;SHT31;54011;50.772;7.730;2023-08-24T00:35:45;21.76;70.63
67093;SHT31;54011;50.772;7.730;2023-08-24T00:38:11;21.70;70.80
67093;SHT31;54011;50.772;7.730;2023-08-24T00:40:41;21.69;70.76
67093;SHT31;54011;50.772;7.730;2023-08-24T00:43:07;21.52;71.08
67093;SHT31;54011;50.772;7.730;2023-08-24T00:45:32;21.26;71.92
67093;SHT31;54011;50.772;7.730;2023-08-24T00:47:59;21.70;70.66
67093;SHT31;54011;50.772;7.730;2023-08-24T00:50:24;21.67;70.48
67093;SHT31;54011;50.772;7.730;2023-08-24T00:52:50;21.70;70.42
67093;SHT31;54011;50.772;7.730;2023-08-24T00:55:18;21.59;70.98
67093;SHT31;54011;50.772;7.730;2023-08-24T00:57:47;21.36;71.53
67093;SHT31;54011;50.772;7.730;2023-08-24T01:00:13;21.23;72.20
67093;SHT31;54011;50.772;7.730;2023-08-24T01:02:40;21.09;72.58
67093;SHT31;54011;50.772;7.730;2023-08-24T01:05:06;21.29;71.83
67093;SHT31;54011;50.772;7.730;2023-08-24T01:07:34;21.33;71.82
67093;SHT31;54011;50.772;7.730;2023-08-24T01:10:00;21.22;71.83
67093;SHT31;54011;50.772;7.730;2023-08-24T01:12:42;21.41;71.64
67093;SHT31;54011;50.772;7.730;2023-08-24T01:15:28;21.45;71.51
67093;SHT31;54011;50.772;7.730;2023-08-24T01:17:57;21.39;71.35
67093;SHT31;54011;50.772;7.730;2023-08-24T01:20:29;21.35;71.64
67093;SHT31;54011;50.772;7.730;2023-08-24T01:22:58;21.05;72.50
67093;SHT31;54011;50.772;7.730;2023-08-24T01:25:38;21.32;71.84
67093;SHT31;54011;50.772;7.730;2023-08-24T01:28:06;21.32;71.36
67093;SHT31;54011;50.772;7.730;2023-08-24T01:30:34;21.28;71.70
67093;SHT31;54011;50.772;7.730;2023-08-24T01:33:03;21.56;71.23
67093;SHT31;54011;50.772;7.730;2023-08-24T01:35:30;21.52;71.28
67093;SHT31;54011;50.772;7.730;2023-08-24T01:37:57;21.46;71.64
67093;SHT31;54011;50.772;7.730;2023-08-24T01:40:59;21.52;71.02
67093;SHT31;54011;50.772;7.730;2023-08-24T01:43:31;21.53;71.12
67093;SHT31;54011;50.772;7.730;2023-08-24T01:45:59;21.33;71.64
67093;SHT31;54011;50.772;7.730;2023-08-24T01:48:25;21.54;70.99
67093;SHT31;54011;50.772;7.730;2023-08-24T01:50:51;21.11;71.93
67093;SHT31;54011;50.772;7.730;2023-08-24T01:53:19;21.28;71.73
67093;SHT31;54011;50.772;7.730;2023-08-24T01:55:46;21.19;71.69
67093;SHT31;54011;50.772;7.730;2023-08-24T01:58:13;21.29;71.24
67093;SHT31;54011;50.772;7.730;2023-08-24T02:00:38;21.23;71.46
67093;SHT31;54011;50.772;7.730;2023-08-24T02:03:04;21.22;71.74
67093;SHT31;54011;50.772;7.730;2023-08-24T02:05:30;21.05;71.82
67093;SHT31;54011;50.772;7.730;2023-08-24T02:07:56;20.98;71.84
67093;SHT31;54011;50.772;7.730;2023-08-24T02:10:23;21.02;72.13
67093;SHT31;54011;50.772;7.730;2023-08-24T02:12:49;21.01;71.96
67093;SHT31;54011;50.772;7.730;2023-08-24T02:15:14;20.98;71.92
67093;SHT31;54011;50.772;7.730;2023-08-24T02:17:40;20.63;72.87
67093;SHT31;54011;50.772;7.730;2023-08-24T02:20:06;20.64;72.74
67093;SHT31;54011;50.772;7.730;2023-08-24T02:22:34;20.75;72.35
67093;SHT31;54011;50.772;7.730;2023-08-24T02:25:01;20.60;72.49
67093;SHT31;54011;50.772;7.730;2023-08-24T02:27:28;20.65;72.20
67093;SHT31;54011;50.772;7.730;2023-08-24T02:29:53;20.63;72.52
67093;SHT31;54011;50.772;7.730;2023-08-24T02:32:20;20.80;72.06
67093;SHT31;54011;50.772;7.730;2023-08-24T02:34:47;20.68;72.33
67093;SHT31;54011;50.772;7.730;2023-08-24T02:37:13;20.50;73.35
67093;SHT31;54011;50.772;7.730;2023-08-24T02:39:40;20.73;72.31
67093;SHT31;54011;50.772;7.730;2023-08-24T02:42:06;20.68;72.64
67093;SHT31;54011;50.772;7.730;2023-08-24T02:44:34;20.57;72.95
67093;SHT31;54011;50.772;7.730;2023-08-24T02:47:00;20.55;72.97
67093;SHT31;54011;50.772;7.730;2023-08-24T02:49:25;20.81;72.14
67093;SHT31;54011;50.772;7.730;2023-08-24T02:51:51;20.73;72.78
67093;SHT31;54011;50.772;7.730;2023-08-24T02:54:16;20.71;73.05
67093;SHT31;54011;50.772;7.730;2023-08-24T02:56:43;21.15;71.51
67093;SHT31;54011;50.772;7.730;2023-08-24T02:59:09;21.08;71.75
67093;SHT31;54011;50.772;7.730;2023-08-24T03:01:35;21.31;70.93
67093;SHT31;54011;50.772;7.730;2023-08-24T03:04:05;20.95;72.21
67093;SHT31;54011;50.772;7.730;2023-08-24T03:06:32;20.90;72.61
67093;SHT31;54011;50.772;7.730;2023-08-24T03:09:00;21.05;71.42
67093;SHT31;54011;50.772;7.730;2023-08-24T03:11:27;20.87;71.21
67093;SHT31;54011;50.772;7.730;2023-08-24T03:13:53;20.94;71.22
67093;SHT31;54011;50.772;7.730;2023-08-24T03:16:19;20.82;71.34
67093;SHT31;54011;50.772;7.730;2023-08-24T03:18:48;20.70;71.67
67093;SHT31;54011;50.772;7.730;2023-08-24T03:21:18;20.81;71.06
67093;SHT31;54011;50.772;7.730;2023-08-24T03:23:43;20.67;71.15
67093;SHT31;54011;50.772;7.730;2023-08-24T03:26:09;20.71;71.11
67093;SHT31;54011;50.772;7.730;2023-08-24T03:28:35;20.37;72.31
67093;SHT31;54011;50.772;7.730;2023-08-24T03:31:00;20.43;72.54
67093;SHT31;54011;50.772;7.730;2023-08-24T03:33:26;20.57;71.82
67093;SHT31;54011;50.772;7.730;2023-08-24T03:35:53;20.73;71.33
67093;SHT31;54011;50.772;7.730;2023-08-24T03:38:20;20.64;71.30
67093;SHT31;54011;50.772;7.730;2023-08-24T03:40:45;20.43;72.28
67093;SHT31;54011;50.772;7.730;2023-08-24T03:43:13;20.32;73.45
67093;SHT31;54011;50.772;7.730;2023-08-24T03:45:39;20.20;74.27
67093;SHT31;54011;50.772;7.730;2023-08-24T03:48:07;20.16;74.15
67093;SHT31;54011;50.772;7.730;2023-08-24T03:50:33;20.33;74.07
67093;SHT31;54011;50.772;7.730;2023-08-24T03:52:58;20.65;73.36
67093;SHT31;54011;50.772;7.730;2023-08-24T03:55:24;20.53;73.65
67093;SHT31;54011;50.772;7.730;2023-08-24T03:57:50;20.57;73.44
67093;SHT31;54011;50.772;7.730;2023-08-24T04:00:16;20.58;73.47
67093;SHT31;54011;50.772;7.730;2023-08-24T04:02:42;20.71;73.30
67093;SHT31;54011;50.772;7.730;2023-08-24T04:05:12;20.82;73.19
67093;SHT31;54011;50.772;7.730;2023-08-24T04:07:37;20.88;72.92
67093;SHT31;54011;50.772;7.730;2023-08-24T04:10:06;20.99;73.20
67093;SHT31;54011;50.772;7.730;2023-08-24T04:12:32;20.65;73.68
67093;SHT31;54011;50.772;7.730;2023-08-24T04:14:58;20.82;71.62
67093;SHT31;54011;50.772;7.730;2023-08-24T04:17:24;20.44;72.27
67093;SHT31;54011;50.772;7.730;2023-08-24T04:19:51;20.39;72.68
67093;SHT31;54011;50.772;7.730;2023-08-24T04:22:18;20.34;72.69
67093;SHT31;54011;50.772;7.730;2023-08-24T04:24:45;20.16;73.26
67093;SHT31;54011;50.772;7.730;2023-08-24T04:27:10;20.08;73.83
67093;SHT31;54011;50.772;7.730;2023-08-24T04:29:37;19.66;74.12
67093;SHT31;54011;50.772;7.730;2023-08-24T04:32:03;19.92;74.31
67093;SHT31;54011;50.772;7.730;2023-08-24T04:34:29;20.32;73.01
67093;SHT31;54011;50.772;7.730;2023-08-24T04:36:55;20.63;72.31
67093;SHT31;54011;50.772;7.730;2023-08-24T04:39:24;20.71;72.32
67093;SHT31;54011;50.772;7.730;2023-08-24T04:41:50;20.87;72.21
67093;SHT31;54011;50.772;7.730;2023-08-24T04:44:17;21.04;72.01
67093;SHT31;54011;50.772;7.730;2023-08-24T04:46:43;21.25;71.87
67093;SHT31;54011;50.772;7.730;2023-08-24T04:49:09;21.28;71.44
67093;SHT31;54011;50.772;7.730;2023-08-24T04:51:37;21.50;71.00
67093;SHT31;54011;50.772;7.730;2023-08-24T04:54:02;21.59;70.82
67093;SHT31;54011;50.772;7.730;2023-08-24T04:56:30;21.09;72.29
67093;SHT31;54011;50.772;7.730;2023-08-24T04:58:56;21.42;71.73
67093;SHT31;54011;50.772;7.730;2023-08-24T05:01:24;21.54;71.55
67093;SHT31;54011;50.772;7.730;2023-08-24T05:03:51;21.50;71.89
67093;SHT31;54011;50.772;7.730;2023-08-24T05:06:17;21.33;72.29
67093;SHT31;54011;50.772;7.730;2023-08-24T05:08:43;21.47;71.68
67093;SHT31;54011;50.772;7.730;2023-08-24T05:11:19;21.41;72.09
67093;SHT31;54011;50.772;7.730;2023-08-24T05:13:50;21.56;71.54
67093;SHT31;54011;50.772;7.730;2023-08-24T05:16:16;21.70;71.35
67093;SHT31;54011;50.772;7.730;2023-08-24T05:18:43;21.59;71.69
67093;SHT31;54011;50.772;7.730;2023-08-24T05:21:08;21.33;72.60
67093;SHT31;54011;50.772;7.730;2023-08-24T05:23:34;21.60;72.04
67093;SHT31;54011;50.772;7.730;2023-08-24T05:26:02;21.94;71.02
67093;SHT31;54011;50.772;7.730;2023-08-24T05:28:29;21.93;71.15
67093;SHT31;54011;50.772;7.730;2023-08-24T05:30:59;22.03;71.52
67093;SHT31;54011;50.772;7.730;2023-08-24T05:33:27;21.87;71.86
67093;SHT31;54011;50.772;7.730;2023-08-24T05:35:57;21.86;72.38
67093;SHT31;54011;50.772;7.730;2023-08-24T05:38:24;21.76;72.67
67093;SHT31;54011;50.772;7.730;2023-08-24T05:40:50;21.69;73.38
67093;SHT31;54011;50.772;7.730;2023-08-24T05:43:19;21.87;72.53
67093;SHT31;54011;50.772;7.730;2023-08-24T05:45:46;21.72;73.22
67093;SHT31;54011;50.772;7.730;2023-08-24T05:48:12;21.73;73.42
67093;SHT31;54011;50.772;7.730;2023-08-24T05:50:42;22.11;72.93
67093;SHT31;54011;50.772;7.730;2023-08-24T05:56:01;21.91;73.28
67093;SHT31;54011;50.772;7.730;2023-08-24T05:58:26;21.93;72.40
67093;SHT31;54011;50.772;7.730;2023-08-24T06:00:57;22.00;73.08
67093;SHT31;54011;50.772;7.730;2023-08-24T06:03:23;21.98;72.62
67093;SHT31;54011;50.772;7.730;2023-08-24T06:05:49;21.45;74.13
67093;SHT31;54011;50.772;7.730;2023-08-24T06:08:15;21.15;74.87
67093;SHT31;54011;50.772;7.730;2023-08-24T06:10:41;21.64;73.93
67093;SHT31;54011;50.772;7.730;2023-08-24T06:13:06;21.59;73.97
67093;SHT31;54011;50.772;7.730;2023-08-24T06:15:32;21.98;72.94
67093;SHT31;54011;50.772;7.730;2023-08-24T06:17:58;21.52;74.40
67093;SHT31;54011;50.772;7.730;2023-08-24T06:20:25;21.53;73.70
67093;SHT31;54011;50.772;7.730;2023-08-24T06:22:51;21.53;74.27
67093;SHT31;54011;50.772;7.730;2023-08-24T06:25:16;21.33;74.02
67093;SHT31;54011;50.772;7.730;2023-08-24T06:27:43;21.53;74.20
67093;SHT31;54011;50.772;7.730;2023-08-24T06:30:10;21.59;73.93
67093;SHT31;54011;50.772;7.730;2023-08-24T06:32:36;21.33;74.80
67093;SHT31;54011;50.772;7.730;2023-08-24T06:35:02;21.86;73.71
67093;SHT31;54011;50.772;7.730;2023-08-24T06:37:30;21.69;74.07
67093;SHT31;54011;50.772;7.730;2023-08-24T06:39:56;21.50;74.63
67093;SHT31;54011;50.772;7.730;2023-08-24T06:42:22;21.90;73.67
67093;SHT31;54011;50.772;7.730;2023-08-24T06:44:47;22.03;73.87
67093;SHT31;54011;50.772;7.730;2023-08-24T06:47:15;22.14;72.87
67093;SHT31;54011;50.772;7.730;2023-08-24T06:49:41;21.91;73.38
67093;SHT31;54011;50.772;7.730;2023-08-24T06:52:06;22.44;72.40
67093;SHT31;54011;50.772;7.730;2023-08-24T06:54:33;22.55;72.00
67093;SHT31;54011;50.772;7.730;2023-08-24T06:56:59;23.04;71.71
67093;SHT31;54011;50.772;7.730;2023-08-24T06:59:25;23.26;71.08
67093;SHT31;54011;50.772;7.730;2023-08-24T07:01:51;23.10;71.15
67093;SHT31;54011;50.772;7.730;2023-08-24T07:04:17;23.12;71.41
67093;SHT31;54011;50.772;7.730;2023-08-24T07:06:46;23.07;72.11
67093;SHT31;54011;50.772;7.730;2023-08-24T07:09:13;23.02;71.56
67093;SHT31;54011;50.772;7.730;2023-08-24T07:11:41;23.33;71.12
67093;SHT31;54011;50.772;7.730;2023-08-24T07:14:07;23.61;70.96
67093;SHT31;54011;50.772;7.730;2023-08-24T07:16:33;23.75;70.87
67093;SHT31;54011;50.772;7.730;2023-08-24T07:18:58;23.82;70.08
67093;SHT31;54011;50.772;7.730;2023-08-24T07:21:24;23.99;69.15
67093;SHT31;54011;50.772;7.730;2023-08-24T07:23:51;24.37;69.31
67093;SHT31;54011;50.772;7.730;2023-08-24T07:26:16;24.36;69.06
67093;SHT31;54011;50.772;7.730;2023-08-24T07:28:42;24.19;70.66
67093;SHT31;54011;50.772;7.730;2023-08-24T07:31:11;24.69;69.71
67093;SHT31;54011;50.772;7.730;2023-08-24T07:33:37;25.14;68.01
67093;SHT31;54011;50.772;7.730;2023-08-24T07:36:06;25.38;67.23
67093;SHT31;54011;50.772;7.730;2023-08-24T07:38:33;25.88;66.06
67093;SHT31;54011;50.772;7.730;2023-08-24T07:41:02;25.61;67.33
67093;SHT31;54011;50.772;7.730;2023-08-24T07:43:28;25.35;68.20
67093;SHT31;54011;50.772;7.730;2023-08-24T07:45:54;25.39;67.56
67093;SHT31;54011;50.772;7.730;2023-08-24T07:48:20;24.94;68.51
67093;SHT31;54011;50.772;7.730;2023-08-24T07:50:46;25.69;67.55
67093;SHT31;54011;50.772;7.730;2023-08-24T07:53:12;25.93;66.34
67093;SHT31;54011;50.772;7.730;2023-08-24T07:55:37;25.90;66.06
67093;SHT31;54011;50.772;7.730;2023-08-24T07:58:03;26.31;65.90
67093;SHT31;54011;50.772;7.730;2023-08-24T08:00:29;26.72;65.11
67093;SHT31;54011;50.772;7.730;2023-08-24T08:02:55;26.78;65.02
67093;SHT31;54011;50.772;7.730;2023-08-24T08:05:20;26.30;66.15
67093;SHT31;54011;50.772;7.730;2023-08-24T08:07:48;26.61;65.01
67093;SHT31;54011;50.772;7.730;2023-08-24T08:10:14;27.19;64.01
67093;SHT31;54011;50.772;7.730;2023-08-24T08:12:43;27.12;64.39
67093;SHT31;54011;50.772;7.730;2023-08-24T08:15:09;27.12;64.46
67093;SHT31;54011;50.772;7.730;2023-08-24T08:17:35;27.25;64.44
67093;SHT31;54011;50.772;7.730;2023-08-24T08:20:04;27.29;64.09
67093;SHT31;54011;50.772;7.730;2023-08-24T08:22:30;28.21;62.89
67093;SHT31;54011;50.772;7.730;2023-08-24T08:25:01;28.39;61.40
67093;SHT31;54011;50.772;7.730;2023-08-24T08:27:27;28.72;57.52
67093;SHT31;54011;50.772;7.730;2023-08-24T08:29:53;28.92;54.98
67093;SHT31;54011;50.772;7.730;2023-08-24T08:32:18;29.47;53.27
67093;SHT31;54011;50.772;7.730;2023-08-24T08:34:44;29.96;52.18
67093;SHT31;54011;50.772;7.730;2023-08-24T08:37:10;30.32;52.01
67093;SHT31;54011;50.772;7.730;2023-08-24T08:39:36;30.05;51.56
67093;SHT31;54011;50.772;7.730;2023-08-24T08:42:02;30.09;52.00
67093;SHT31;54011;50.772;7.730;2023-08-24T08:44:30;30.04;50.70
67093;SHT31;54011;50.772;7.730;2023-08-24T08:46:59;30.20;50.25
67093;SHT31;54011;50.772;7.730;2023-08-24T08:49:29;30.26;49.56
67093;SHT31;54011;50.772;7.730;2023-08-24T08:51:55;30.77;49.09
67093;SHT31;54011;50.772;7.730;2023-08-24T08:54:22;30.85;48.81
67093;SHT31;54011;50.772;7.730;2023-08-24T08:56:49;30.78;48.77
67093;SHT31;54011;50.772;7.730;2023-08-24T08:59:22;31.35;48.26
67093;SHT31;54011;50.772;7.730;2023-08-24T09:01:48;31.63;47.67
67093;SHT31;54011;50.772;7.730;2023-08-24T09:04:16;31.98;48.07
67093;SHT31;54011;50.772;7.730;2023-08-24T09:06:42;31.67;47.41
67093;SHT31;54011;50.772;7.730;2023-08-24T09:09:09;32.12;47.21
67093;SHT31;54011;50.772;7.730;2023-08-24T09:11:35;32.30;46.55
67093;SHT31;54011;50.772;7.730;2023-08-24T09:14:02;32.25;46.22
67093;SHT31;54011;50.772;7.730;2023-08-24T09:16:32;32.94;45.27
67093;SHT31;54011;50.772;7.730;2023-08-24T09:18:59;33.27;45.80
67093;SHT31;54011;50.772;7.730;2023-08-24T09:21:25;33.64;44.64
67093;SHT31;54011;50.772;7.730;2023-08-24T09:23:55;33.06;45.32
67093;SHT31;54011;50.772;7.730;2023-08-24T09:26:34;33.25;45.22
67093;SHT31;54011;50.772;7.730;2023-08-24T09:29:10;33.45;44.42
67093;SHT31;54011;50.772;7.730;2023-08-24T09:31:39;33.30;44.84
67093;SHT31;54011;50.772;7.730;2023-08-24T09:34:06;33.81;43.98
67093;SHT31;54011;50.772;7.730;2023-08-24T09:36:33;34.08;43.75
67093;SHT31;54011;50.772;7.730;2023-08-24T09:38:59;34.49;43.64
67093;SHT31;54011;50.772;7.730;2023-08-24T09:41:45;33.81;43.62
67093;SHT31;54011;50.772;7.730;2023-08-24T09:44:11;34.34;43.44
67093;SHT31;54011;50.772;7.730;2023-08-24T09:46:38;34.41;42.34
67093;SHT31;54011;50.772;7.730;2023-08-24T09:49:08;34.14;43.01
67093;SHT31;54011;50.772;7.730;2023-08-24T09:51:35;33.93;42.48
67093;SHT31;54011;50.772;7.730;2023-08-24T09:54:06;34.25;41.97
67093;SHT31;54011;50.772;7.730;2023-08-24T09:56:39;33.97;41.89
67093;SHT31;54011;50.772;7.730;2023-08-24T09:59:25;33.66;43.03
67093;SHT31;54011;50.772;7.730;2023-08-24T10:01:54;34.51;42.07
67093;SHT31;54011;50.772;7.730;2023-08-24T10:04:24;34.49;41.41
67093;SHT31;54011;50.772;7.730;2023-08-24T10:07:11;34.78;41.21
67093;SHT31;54011;50.772;7.730;2023-08-24T10:10:02;35.36;40.02
67093;SHT31;54011;50.772;7.730;2023-08-24T10:12:32;34.89;40.27
67093;SHT31;54011;50.772;7.730;2023-08-24T10:15:00;35.53;40.11
67093;SHT31;54011;50.772;7.730;2023-08-24T10:17:31;35.48;39.55
67093;SHT31;54011;50.772;7.730;2023-08-24T10:19:58;35.73;40.32
67093;SHT31;54011;50.772;7.730;2023-08-24T10:22:31;36.38;39.51
67093;SHT31;54011;50.772;7.730;2023-08-24T10:24:59;35.98;41.26
67093;SHT31;54011;50.772;7.730;2023-08-24T10:27:27;36.33;40.05
67093;SHT31;54011;50.772;7.730;2023-08-24T10:29:53;36.06;40.55
67093;SHT31;54011;50.772;7.730;2023-08-24T10:32:21;35.64;41.41
67093;SHT31;54011;50.772;7.730;2023-08-24T10:34:47;35.46;41.10
67093;SHT31;54011;50.772;7.730;2023-08-24T10:37:14;35.68;40.10
67093;SHT31;54011;50.772;7.730;2023-08-24T10:39:47;35.10;42.35
67093;SHT31;54011;50.772;7.730;2023-08-24T10:42:13;34.51;42.50
67093;SHT31;54011;50.772;7.730;2023-08-24T10:44:44;34.93;42.05
67093;SHT31;54011;50.772;7.730;2023-08-24T10:47:15;34.95;42.84
67093;SHT31;54011;50.772;7.730;2023-08-24T10:49:42;35.00;41.77
67093;SHT31;54011;50.772;7.730;2023-08-24T10:52:21;34.80;43.62
67093;SHT31;54011;50.772;7.730;2023-08-24T10:54:53;34.59;43.01
67093;SHT31;54011;50.772;7.730;2023-08-24T10:57:20;35.06;42.61
67093;SHT31;54011;50.772;7.730;2023-08-24T11:00:09;33.81;44.36
67093;SHT31;54011;50.772;7.730;2023-08-24T11:02:45;34.08;43.44
67093;SHT31;54011;50.772;7.730;2023-08-24T11:07:56;34.24;43.15
67093;SHT31;54011;50.772;7.730;2023-08-24T11:10:24;34.27;42.79
67093;SHT31;54011;50.772;7.730;2023-08-24T11:13:10;33.89;44.20
67093;SHT31;54011;50.772;7.730;2023-08-24T11:15:46;34.79;43.57
67093;SHT31;54011;50.772;7.730;2023-08-24T11:18:22;35.23;43.88
67093;SHT31;54011;50.772;7.730;2023-08-24T11:21:04;35.89;42.27
67093;SHT31;54011;50.772;7.730;2023-08-24T11:23:31;34.95;43.07
67093;SHT31;54011;50.772;7.730;2023-08-24T11:25:58;35.04;43.56
67093;SHT31;54011;50.772;7.730;2023-08-24T11:28:29;34.99;43.97
67093;SHT31;54011;50.772;7.730;2023-08-24T11:30:56;34.44;43.62
67093;SHT31;54011;50.772;7.730;2023-08-24T11:33:32;35.04;43.93
67093;SHT31;54011;50.772;7.730;2023-08-24T11:35:58;35.34;43.10
67093;SHT31;54011;50.772;7.730;2023-08-24T11:38:24;34.15;44.30
67093;SHT31;54011;50.772;7.730;2023-08-24T11:40:50;34.82;42.85
67093;SHT31;54011;50.772;7.730;2023-08-24T11:43:26;34.48;44.58
67093;SHT31;54011;50.772;7.730;2023-08-24T11:45:54;35.13;42.20
67093;SHT31;54011;50.772;7.730;2023-08-24T11:48:27;34.73;43.78
67093;SHT31;54011;50.772;7.730;2023-08-24T11:50:55;34.42;44.57
67093;SHT31;54011;50.772;7.730;2023-08-24T11:53:22;34.69;44.27
67093;SHT31;54011;50.772;7.730;2023-08-24T11:55:48;35.17;43.76
67093;SHT31;54011;50.772;7.730;2023-08-24T11:58:17;35.17;43.79
67093;SHT31;54011;50.772;7.730;2023-08-24T12:00:43;34.85;43.78
67093;SHT31;54011;50.772;7.730;2023-08-24T12:03:11;35.07;44.23
67093;SHT31;54011;50.772;7.730;2023-08-24T12:05:40;35.06;43.95
67093;SHT31;54011;50.772;7.730;2023-08-24T12:08:14;34.05;44.27
67093;SHT31;54011;50.772;7.730;2023-08-24T12:10:43;34.62;44.67
67093;SHT31;54011;50.772;7.730;2023-08-24T12:13:11;34.17;45.71
67093;SHT31;54011;50.772;7.730;2023-08-24T12:15:38;33.13;48.18
67093;SHT31;54011;50.772;7.730;2023-08-24T12:18:10;33.96;45.93
67093;SHT31;54011;50.772;7.730;2023-08-24T12:20:38;33.71;46.26
67093;SHT31;54011;50.772;7.730;2023-08-24T12:23:05;33.57;46.02
67093;SHT31;54011;50.772;7.730;2023-08-24T12:25:42;33.59;46.74
67093;SHT31;54011;50.772;7.730;2023-08-24T12:28:15;33.63;47.50
67093;SHT31;54011;50.772;7.730;2023-08-24T12:30:51;33.96;47.65
67093;SHT31;54011;50.772;7.730;2023-08-24T12:33:36;33.78;46.85
67093;SHT31;54011;50.772;7.730;2023-08-24T12:36:03;33.86;46.51
67093;SHT31;54011;50.772;7.730;2023-08-24T12:38:29;34.21;45.44
67093;SHT31;54011;50.772;7.730;2023-08-24T12:40:55;34.45;45.53
67093;SHT31;54011;50.772;7.730;2023-08-24T12:43:21;34.10;45.38
67093;SHT31;54011;50.772;7.730;2023-08-24T12:45:48;33.66;48.46
67093;SHT31;54011;50.772;7.730;2023-08-24T12:51:10;33.34;48.84
67093;SHT31;54011;50.772;7.730;2023-08-24T12:53:36;33.36;49.02
67093;SHT31;54011;50.772;7.730;2023-08-24T12:56:02;32.82;50.20
67093;SHT31;54011;50.772;7.730;2023-08-24T12:58:38;32.76;50.02
67093;SHT31;54011;50.772;7.730;2023-08-24T13:01:04;32.35;50.00
67093;SHT31;54011;50.772;7.730;2023-08-24T13:03:30;32.13;51.40
67093;SHT31;54011;50.772;7.730;2023-08-24T13:05:57;32.16;51.43
67093;SHT31;54011;50.772;7.730;2023-08-24T13:08:26;31.89;51.18
67093;SHT31;54011;50.772;7.730;2023-08-24T13:10:53;32.33;50.86
67093;SHT31;54011;50.772;7.730;2023-08-24T13:13:19;32.48;50.45
67093;SHT31;54011;50.772;7.730;2023-08-24T13:15:49;32.38;49.92
67093;SHT31;54011;50.772;7.730;2023-08-24T13:18:16;32.68;50.21
67093;SHT31;54011;50.772;7.730;2023-08-24T13:20:43;31.98;51.33
67093;SHT31;54011;50.772;7.730;2023-08-24T13:23:11;32.31;52.43
67093;SHT31;54011;50.772;7.730;2023-08-24T13:25:37;31.82;51.91
67093;SHT31;54011;50.772;7.730;2023-08-24T13:28:06;31.76;53.29
67093;SHT31;54011;50.772;7.730;2023-08-24T13:30:32;31.89;53.18
67093;SHT31;54011;50.772;7.730;2023-08-24T13:33:03;31.29;53.17
67093;SHT31;54011;50.772;7.730;2023-08-24T13:35:30;31.70;53.33
67093;SHT31;54011;50.772;7.730;2023-08-24T13:37:56;31.92;53.73
67093;SHT31;54011;50.772;7.730;2023-08-24T13:40:22;31.98;53.61
67093;SHT31;54011;50.772;7.730;2023-08-24T13:42:48;32.04;53.46
67093;SHT31;54011;50.772;7.730;2023-08-24T13:45:14;31.80;53.31
67093;SHT31;54011;50.772;7.730;2023-08-24T13:47:40;31.67;54.88
67093;SHT31;54011;50.772;7.730;2023-08-24T13:50:07;31.61;53.76
67093;SHT31;54011;50.772;7.730;2023-08-24T13:52:34;31.02;55.07
67093;SHT31;54011;50.772;7.730;2023-08-24T13:55:00;31.22;54.31
67093;SHT31;54011;50.772;7.730;2023-08-24T13:57:30;30.81;54.71
67093;SHT31;54011;50.772;7.730;2023-08-24T13:59:56;31.07;54.93
67093;SHT31;54011;50.772;7.730;2023-08-24T14:02:22;30.60;55.21
67093;SHT31;54011;50.772;7.730;2023-08-24T14:04:48;30.63;55.40
67093;SHT31;54011;50.772;7.730;2023-08-24T14:07:14;30.73;55.29
67093;SHT31;54011;50.772;7.730;2023-08-24T14:09:40;30.90;55.88
67093;SHT31;54011;50.772;7.730;2023-08-24T14:12:06;30.53;56.41
67093;SHT31;54011;50.772;7.730;2023-08-24T14:14:32;30.17;57.06
67093;SHT31;54011;50.772;7.730;2023-08-24T14:16:59;29.99;57.65
67093;SHT31;54011;50.772;7.730;2023-08-24T14:19:25;30.41;58.42
67093;SHT31;54011;50.772;7.730;2023-08-24T14:21:53;30.22;57.95
67093;SHT31;54011;50.772;7.730;2023-08-24T14:24:19;30.64;56.44
67093;SHT31;54011;50.772;7.730;2023-08-24T14:26:50;30.59;56.92
67093;SHT31;54011;50.772;7.730;2023-08-24T14:29:16;30.52;57.38
67093;SHT31;54011;50.772;7.730;2023-08-24T14:31:45;30.32;56.70
67093;SHT31;54011;50.772;7.730;2023-08-24T14:34:12;30.80;56.26
67093;SHT31;54011;50.772;7.730;2023-08-24T14:36:38;30.83;57.70
67093;SHT31;54011;50.772;7.730;2023-08-24T14:39:04;30.48;58.48
67093;SHT31;54011;50.772;7.730;2023-08-24T14:41:30;30.78;58.97
67093;SHT31;54011;50.772;7.730;2023-08-24T14:43:56;30.87;58.67
67093;SHT31;54011;50.772;7.730;2023-08-24T14:46:22;30.39;59.31
67093;SHT31;54011;50.772;7.730;2023-08-24T14:48:49;30.61;57.86
67093;SHT31;54011;50.772;7.730;2023-08-24T14:51:18;30.83;57.12
67093;SHT31;54011;50.772;7.730;2023-08-24T14:53:45;30.97;58.15
67093;SHT31;54011;50.772;7.730;2023-08-24T14:56:10;31.10;57.31
67093;SHT31;54011;50.772;7.730;2023-08-24T14:58:36;30.92;57.82
67093;SHT31;54011;50.772;7.730;2023-08-24T15:01:02;30.88;57.35
67093;SHT31;54011;50.772;7.730;2023-08-24T15:03:28;30.44;57.29
67093;SHT31;54011;50.772;7.730;2023-08-24T15:05:59;30.88;57.11
67093;SHT31;54011;50.772;7.730;2023-08-24T15:08:27;30.83;56.49
67093;SHT31;54011;50.772;7.730;2023-08-24T15:10:58;30.90;55.97
67093;SHT31;54011;50.772;7.730;2023-08-24T15:13:26;30.88;56.55
67093;SHT31;54011;50.772;7.730;2023-08-24T15:15:54;30.57;57.02
67093;SHT31;54011;50.772;7.730;2023-08-24T15:18:21;30.46;56.62
67093;SHT31;54011;50.772;7.730;2023-08-24T15:20:47;30.44;57.09
67093;SHT31;54011;50.772;7.730;2023-08-24T15:23:40;30.39;56.69
67093;SHT31;54011;50.772;7.730;2023-08-24T15:26:06;29.55;58.31
67093;SHT31;54011;50.772;7.730;2023-08-24T15:28:37;29.79;58.56
67093;SHT31;54011;50.772;7.730;2023-08-24T15:31:03;29.74;58.52
67093;SHT31;54011;50.772;7.730;2023-08-24T15:33:30;29.85;57.47
67093;SHT31;54011;50.772;7.730;2023-08-24T15:35:55;29.81;57.61
67093;SHT31;54011;50.772;7.730;2023-08-24T15:38:21;29.10;58.58
67093;SHT31;54011;50.772;7.730;2023-08-24T15:40:53;29.45;58.02
67093;SHT31;54011;50.772;7.730;2023-08-24T15:43:21;29.35;58.72